Time;durP1;ratioP1;P1;durP2;ratioP2;P2;SDS_P1;SDS_P2;PMS_P1;PMS_P2;Temp;Humidity;BMP_temperature;BMP_pressure;BME280_temperature;BME280_humidity;BME280_pressure;Samples;Min_cycle;Max_cycle;Signal;HPM_P1;HPM_P2
2022/10/27 00:00:28;;;;;;;4.53;2.33;;;9.90;99.90;;;10.97;100.00;98937.44;4994287;28;20448;-91
2022/10/27 00:02:58;;;;;;;13.60;2.60;;;10.00;99.90;;;10.91;100.00;98941.53;4998806;28;20445;-91
2022/10/27 00:05:31;;;;;;;2.60;1.97;;;9.90;99.90;;;10.86;100.00;98938.63;4999444;28;20447;-91
2022/10/27 00:08:03;;;;;;;6.00;1.80;;;9.90;99.90;;;10.88;100.00;98935.84;5001920;28;20451;-90
2022/10/27 00:10:34;;;;;;;8.43;2.20;;;10.00;99.90;;;10.88;100.00;98923.56;4999362;28;20468;-91
2022/10/27 00:13:06;;;;;;;17.83;2.30;;;9.90;99.90;;;10.84;100.00;98922.25;4997680;28;20467;-91
2022/10/27 00:15:35;;;;;;;6.20;2.03;;;9.80;99.90;;;10.82;100.00;98923.41;4994840;28;20880;-91
2022/10/27 00:18:09;;;;;;;7.77;2.40;;;9.80;99.90;;;10.78;100.00;98928.16;4998129;28;20534;-91
2022/10/27 00:20:40;;;;;;;4.90;1.93;;;9.80;99.90;;;10.72;100.00;98917.56;4988687;28;20463;-91
2022/10/27 00:23:09;;;;;;;11.80;1.80;;;9.80;99.90;;;10.71;100.00;98916.75;5000044;28;20456;-91
2022/10/27 00:25:39;;;;;;;4.17;2.10;;;9.80;99.90;;;10.74;100.00;98912.97;4993028;28;20490;-91
2022/10/27 00:28:07;;;;;;;5.93;2.30;;;9.80;99.90;;;10.69;100.00;98899.59;4993265;28;20863;-90
2022/10/27 00:30:37;;;;;;;8.10;2.23;;;9.70;99.90;;;10.68;100.00;98897.94;4990212;28;21168;-90
2022/10/27 00:33:06;;;;;;;7.60;2.50;;;9.60;99.90;;;10.68;100.00;98903.16;4990834;28;20464;-91
2022/10/27 00:35:37;;;;;;;13.00;2.07;;;9.70;99.90;;;10.70;100.00;98903.81;4994355;28;20463;-91
2022/10/27 00:38:08;;;;;;;10.07;2.00;;;9.70;99.90;;;10.69;100.00;98903.00;4991110;28;20527;-91
2022/10/27 00:40:39;;;;;;;7.73;2.73;;;9.70;99.90;;;10.64;100.00;98902.69;4995296;28;21070;-91
2022/10/27 00:43:28;;;;;;;4.73;2.20;;;9.70;99.90;;;10.69;100.00;98907.44;4996539;28;20455;-91
2022/10/27 00:46:04;;;;;;;3.70;1.83;;;9.80;99.90;;;10.68;100.00;98911.84;4998341;28;20502;-91
2022/10/27 00:48:34;;;;;;;3.90;1.40;;;9.90;99.90;;;10.65;100.00;98912.19;4992035;28;20463;-91
2022/10/27 00:51:05;;;;;;;14.33;2.33;;;9.80;99.90;;;10.63;100.00;98916.75;4991082;28;20457;-91
2022/10/27 00:53:36;;;;;;;14.80;2.13;;;9.70;99.90;;;10.56;100.00;98907.91;4990846;28;20475;-91
2022/10/27 00:56:07;;;;;;;3.13;1.77;;;9.60;99.90;;;10.55;100.00;98914.94;4993570;28;20505;-91
2022/10/27 00:58:37;;;;;;;1.97;1.57;;;9.60;99.90;;;10.56;100.00;98911.34;4993495;28;20559;-90
2022/10/27 01:01:07;;;;;;;4.07;1.63;;;9.70;99.90;;;10.50;100.00;98905.97;4994150;28;20479;-91
2022/10/27 01:03:36;;;;;;;8.53;2.30;;;9.60;99.90;;;10.48;100.00;98908.75;4997799;28;20459;-91
2022/10/27 01:06:06;;;;;;;8.20;2.10;;;9.50;99.90;;;10.44;100.00;98904.84;4993293;28;20456;-91
2022/10/27 01:08:39;;;;;;;10.17;2.37;;;9.50;99.90;;;10.40;100.00;98911.38;4998755;28;21220;-90
2022/10/27 01:11:09;;;;;;;4.37;2.37;;;9.40;99.90;;;10.45;100.00;98911.69;4994580;28;20445;-90
2022/10/27 01:13:40;;;;;;;7.57;2.57;;;9.50;99.90;;;10.40;100.00;98916.63;4998837;28;20475;-91
2022/10/27 01:16:23;;;;;;;5.47;1.93;;;9.40;99.90;;;10.33;100.00;98918.25;4996639;28;20501;-90
2022/10/27 01:19:12;;;;;;;2.90;2.10;;;9.30;99.90;;;10.31;100.00;98916.78;4990455;28;21020;-90
2022/10/27 01:22:05;;;;;;;4.30;1.80;;;9.30;99.90;;;10.28;100.00;98917.09;4996804;28;20468;-90
2022/10/27 01:25:23;;;;;;;4.97;1.80;;;9.20;99.90;;;10.26;100.00;98913.81;4995238;28;20460;-91
2022/10/27 01:28:32;;;;;;;4.40;1.87;;;9.30;99.90;;;10.21;100.00;98927.38;4954010;28;20484;-90
2022/10/27 01:31:09;;;;;;;5.30;2.10;;;9.20;99.90;;;10.19;100.00;98929.34;4997478;28;21021;-90
2022/10/27 01:33:48;;;;;;;8.60;1.80;;;9.20;99.90;;;10.19;100.00;98918.06;4992481;28;20459;-91
2022/10/27 01:36:27;;;;;;;9.10;1.83;;;9.20;99.90;;;10.20;100.00;98928.38;4994624;28;20502;-90
2022/10/27 01:39:05;;;;;;;4.67;2.10;;;9.20;99.90;;;10.15;100.00;98924.59;4995116;28;20578;-90
2022/10/27 01:41:43;;;;;;;2.80;1.50;;;9.10;99.90;;;10.17;100.00;98928.69;4992535;28;20462;-90
2022/10/27 01:44:21;;;;;;;6.60;2.50;;;9.20;99.90;;;10.20;100.00;98928.38;4988209;28;20831;-90
2022/10/27 01:46:54;;;;;;;3.40;1.80;;;9.20;99.90;;;10.13;100.00;98922.13;4986911;28;20527;-91
2022/10/27 01:49:22;;;;;;;6.83;1.80;;;9.10;99.90;;;10.17;100.00;98918.22;4993988;28;20436;-90
2022/10/27 01:51:52;;;;;;;8.10;1.70;;;9.20;99.90;;;10.20;100.00;98920.53;4993080;28;20489;-91
2022/10/27 01:54:21;;;;;;;2.20;1.87;;;9.30;99.90;;;10.15;100.00;98922.81;4993376;28;20476;-90
2022/10/27 01:57:13;;;;;;;4.30;1.60;;;9.30;99.90;;;10.15;100.00;98932.44;4994131;28;20555;-90
2022/10/27 02:00:03;;;;;;;4.67;1.53;;;9.20;99.90;;;10.12;100.00;98920.50;4995345;28;20486;-90
2022/10/27 02:02:47;;;;;;;6.33;1.77;;;9.20;99.90;;;10.02;100.00;98923.28;4993694;28;20452;-91
2022/10/27 02:05:27;;;;;;;4.03;1.90;;;9.10;99.90;;;9.97;100.00;98928.16;4995618;28;20555;-91
2022/10/27 02:08:10;;;;;;;4.50;1.50;;;9.00;99.90;;;9.98;100.00;98923.75;4991304;28;20491;-91
2022/10/27 02:10:48;;;;;;;6.43;1.97;;;9.00;99.90;;;10.00;100.00;98922.59;4994285;28;20562;-91
2022/10/27 02:13:18;;;;;;;10.90;2.07;;;8.90;99.90;;;9.95;100.00;98919.66;4988391;28;20460;-90
2022/10/27 02:15:53;;;;;;;3.40;1.80;;;9.00;99.90;;;9.89;100.00;98920.28;4994987;28;20519;-90
2022/10/27 02:18:28;;;;;;;8.03;1.93;;;8.90;99.90;;;9.86;100.00;98910.16;4992495;28;20530;-90
2022/10/27 02:21:04;;;;;;;7.03;2.13;;;8.90;99.90;;;9.93;100.00;98915.56;4988493;28;20601;-91
2022/10/27 02:23:35;;;;;;;4.73;1.77;;;9.00;99.90;;;9.92;100.00;98911.34;4986770;28;20586;-90
2022/10/27 02:26:13;;;;;;;7.97;1.63;;;9.00;99.90;;;9.87;100.00;98908.38;4991707;28;20488;-90
2022/10/27 02:28:51;;;;;;;3.40;1.73;;;9.00;99.90;;;9.88;100.00;98907.41;4987866;28;20487;-91
2022/10/27 02:31:28;;;;;;;12.00;1.80;;;8.90;99.90;;;9.85;100.00;98902.50;4988568;28;20453;-90
2022/10/27 02:34:00;;;;;;;6.00;3.27;;;8.90;99.90;;;9.82;100.00;98908.06;4994115;28;20554;-92
2022/10/27 02:36:29;;;;;;;3.40;1.80;;;8.80;99.90;;;9.83;100.00;98925.34;4991493;28;20453;-90
2022/10/27 02:38:58;;;;;;;12.73;1.80;;;8.80;99.90;;;9.80;100.00;98917.81;4980345;28;20522;-91
2022/10/27 02:41:27;;;;;;;8.07;1.70;;;8.80;99.90;;;9.81;100.00;98914.25;4990766;28;20472;-91
2022/10/27 02:43:56;;;;;;;4.80;1.80;;;8.80;99.90;;;9.77;100.00;98918.16;4994026;28;20870;-91
2022/10/27 02:46:25;;;;;;;10.43;1.73;;;8.80;99.90;;;9.75;100.00;98907.06;4989630;28;20471;-91
2022/10/27 02:48:55;;;;;;;5.63;1.80;;;8.80;99.90;;;9.73;100.00;98909.81;4990830;28;20515;-91
2022/10/27 02:51:26;;;;;;;7.40;1.60;;;8.70;99.90;;;9.66;100.00;98908.00;4993162;28;20886;-90
2022/10/27 02:53:55;;;;;;;2.80;1.90;;;8.60;99.90;;;9.70;100.00;98917.97;4988899;28;20479;-90
2022/10/27 02:56:24;;;;;;;10.90;1.90;;;8.80;99.90;;;9.75;100.00;98920.94;4990935;28;21046;-89
2022/10/27 02:58:52;;;;;;;17.90;1.70;;;8.80;99.90;;;9.73;100.00;98920.25;4993824;28;20922;-89
2022/10/27 03:01:22;;;;;;;11.33;1.60;;;8.90;99.90;;;9.72;100.00;98918.63;4994334;28;20825;-88
2022/10/27 03:03:51;;;;;;;8.00;1.40;;;8.80;99.90;;;9.74;100.00;98921.09;4988110;28;20448;-89
2022/10/27 03:06:20;;;;;;;9.37;1.97;;;8.80;99.90;;;9.76;100.00;98916.50;4989996;28;20543;-90
2022/10/27 03:08:51;;;;;;;3.53;1.70;;;8.90;99.90;;;9.76;100.00;98919.13;4987217;28;20485;-89
2022/10/27 03:11:20;;;;;;;5.30;1.27;;;8.90;99.90;;;9.69;100.00;98918.94;4990391;28;20448;-82
2022/10/27 03:13:50;;;;;;;6.40;1.70;;;8.90;99.90;;;9.69;100.00;98915.50;4987525;28;20534;-89
2022/10/27 03:16:19;;;;;;;3.40;1.43;;;8.80;99.90;;;9.69;100.00;98915.50;4983199;28;20516;-89
2022/10/27 03:18:48;;;;;;;3.10;1.47;;;8.80;99.90;;;9.63;100.00;98914.38;4987971;28;20527;-89
2022/10/27 03:21:17;;;;;;;2.20;1.53;;;8.70;99.90;;;9.58;100.00;98917.44;4989528;28;20580;-89
2022/10/27 03:23:47;;;;;;;3.20;1.83;;;8.70;99.90;;;9.55;100.00;98915.16;4987759;28;20760;-89
2022/10/27 03:26:17;;;;;;;6.20;1.80;;;8.70;99.90;;;9.51;100.00;98906.00;4982667;28;20491;-90
2022/10/27 03:28:46;;;;;;;6.13;1.90;;;8.60;99.90;;;9.54;100.00;98910.13;4986632;28;21036;-87
2022/10/27 03:31:15;;;;;;;1.50;1.23;;;8.60;99.90;;;9.57;100.00;98917.63;4983062;28;20550;-86
2022/10/27 03:33:45;;;;;;;8.30;2.40;;;8.70;99.90;;;9.59;100.00;98913.88;4984216;28;20475;-87
2022/10/27 03:36:13;;;;;;;2.50;1.67;;;8.70;99.90;;;9.59;100.00;98916.47;4985462;28;20896;-87
2022/10/27 03:38:42;;;;;;;4.17;2.00;;;8.70;99.90;;;9.59;100.00;98910.44;4984749;28;20579;-86
2022/10/27 03:41:11;;;;;;;20.73;2.23;;;8.70;99.90;;;9.57;100.00;98905.38;4988199;28;20456;-84
2022/10/27 03:43:41;;;;;;;5.63;1.83;;;8.70;99.90;;;9.52;100.00;98897.19;4981502;28;20864;-80
2022/10/27 03:46:10;;;;;;;9.37;2.27;;;8.60;99.90;;;9.51;100.00;98892.94;4981253;28;20474;-84
2022/10/27 03:48:39;;;;;;;4.17;2.17;;;8.60;99.90;;;9.53;100.00;98901.47;4980938;28;20475;-84
2022/10/27 03:51:09;;;;;;;10.77;1.80;;;8.60;99.90;;;9.53;100.00;98893.63;4982929;28;20554;-84
2022/10/27 03:53:38;;;;;;;5.47;1.70;;;8.70;99.90;;;9.54;100.00;98892.63;4984550;28;20503;-83
2022/10/27 03:56:08;;;;;;;3.53;1.60;;;8.70;99.90;;;9.51;100.00;98892.94;4984825;28;20471;-84
2022/10/27 03:58:39;;;;;;;3.33;1.13;;;8.70;99.90;;;9.49;100.00;98897.53;4982649;28;20456;-84
2022/10/27 04:01:10;;;;;;;14.83;1.90;;;8.70;99.90;;;9.43;100.00;98899.97;4982330;28;20990;-83
2022/10/27 04:03:39;;;;;;;5.20;2.00;;;8.60;99.90;;;9.36;100.00;98905.00;4982505;28;21331;-83
2022/10/27 04:06:08;;;;;;;1.80;1.70;;;8.40;99.90;;;9.38;100.00;98905.63;4982244;28;20457;-84
2022/10/27 04:08:37;;;;;;;2.40;1.60;;;8.40;99.90;;;9.41;100.00;98907.94;4984835;28;20451;-83
2022/10/27 04:11:09;;;;;;;3.13;2.57;;;8.50;99.90;;;9.42;100.00;98906.13;4982896;28;20498;-84
2022/10/27 04:13:40;;;;;;;9.00;2.10;;;8.50;99.90;;;9.41;100.00;98909.72;4984837;28;20525;-84
2022/10/27 04:16:10;;;;;;;11.20;4.70;;;8.50;99.90;;;9.41;100.00;98900.09;4981769;28;20535;-84
2022/10/27 04:18:39;;;;;;;5.70;1.60;;;8.50;99.90;;;9.37;100.00;98911.81;4980554;28;20559;-86
2022/10/27 04:21:08;;;;;;;2.00;1.60;;;8.50;99.90;;;9.36;100.00;98902.38;4983005;28;20527;-84
2022/10/27 04:23:36;;;;;;;2.60;1.50;;;8.50;99.90;;;9.32;100.00;98902.84;4986666;28;20488;-84
2022/10/27 04:26:05;;;;;;;2.63;1.50;;;8.40;99.90;;;9.25;100.00;98899.22;4985293;28;20480;-87
2022/10/27 04:28:34;;;;;;;6.60;1.80;;;8.40;99.90;;;9.17;100.00;98907.84;4983229;28;20576;-87
2022/10/27 04:31:05;;;;;;;10.30;2.47;;;8.30;99.90;;;9.11;100.00;98911.09;4985145;28;20872;-87
2022/10/27 04:33:34;;;;;;;13.33;1.97;;;8.20;99.90;;;9.05;100.00;98914.31;4983833;28;20456;-86
2022/10/27 04:36:06;;;;;;;6.20;1.67;;;8.20;99.90;;;9.03;100.00;98909.25;4986502;28;20448;-87
2022/10/27 04:38:36;;;;;;;5.60;1.47;;;8.10;99.90;;;9.05;100.00;98907.31;4982688;28;20544;-87
2022/10/27 04:41:06;;;;;;;1.87;1.30;;;8.10;99.90;;;9.03;100.00;98904.03;4985172;28;20575;-88
2022/10/27 04:43:35;;;;;;;3.50;1.43;;;8.00;99.90;;;9.04;100.00;98894.41;4985396;28;20471;-87
2022/10/27 04:46:05;;;;;;;5.23;1.93;;;8.00;99.90;;;9.02;100.00;98896.38;4983105;28;20455;-87
2022/10/27 04:48:34;;;;;;;6.20;1.67;;;8.00;99.90;;;9.01;100.00;98899.94;4987341;28;20451;-87
2022/10/27 04:51:03;;;;;;;3.13;1.50;;;8.00;99.90;;;8.98;100.00;98903.69;4986471;28;20452;-87
2022/10/27 04:53:32;;;;;;;4.23;1.60;;;8.00;99.90;;;8.80;100.00;98910.75;4988236;28;20564;-88
2022/10/27 04:56:02;;;;;;;10.27;1.97;;;7.80;99.90;;;8.86;100.00;98904.91;4987104;28;21068;-87
2022/10/27 04:58:31;;;;;;;5.37;1.63;;;7.90;99.90;;;8.86;100.00;98899.72;4988824;28;20488;-87
2022/10/27 05:01:08;;;;;;;4.13;1.67;;;7.90;99.90;;;8.83;100.00;98901.81;4986401;28;20991;-88
2022/10/27 05:03:38;;;;;;;4.77;1.63;;;7.80;99.90;;;8.80;100.00;98904.72;4986175;28;20453;-87
2022/10/27 05:06:10;;;;;;;11.73;1.77;;;7.80;99.90;;;8.77;100.00;98905.03;4988013;28;20971;-88
2022/10/27 05:08:39;;;;;;;3.63;1.70;;;7.70;99.90;;;8.78;100.00;98917.13;4987805;28;20456;-88
2022/10/27 05:11:12;;;;;;;4.80;1.47;;;7.80;99.90;;;8.76;100.00;98912.03;4990994;28;20823;-86
2022/10/27 05:13:45;;;;;;;3.47;1.30;;;7.70;99.90;;;8.77;100.00;98912.84;4990409;28;20479;-88
2022/10/27 05:16:15;;;;;;;4.30;1.67;;;7.60;99.90;;;8.72;100.00;98910.72;4990044;28;20466;-88
2022/10/27 05:18:45;;;;;;;8.33;1.20;;;7.70;99.90;;;8.68;100.00;98904.16;4987019;28;20520;-88
2022/10/27 05:21:15;;;;;;;6.33;1.83;;;7.70;99.90;;;8.61;100.00;98899.72;4985640;28;20558;-86
2022/10/27 05:23:44;;;;;;;11.57;1.63;;;7.70;99.90;;;8.62;100.00;98911.78;4983645;28;20951;-88
2022/10/27 05:26:18;;;;;;;10.13;1.97;;;7.70;99.90;;;8.64;100.00;98905.47;4982229;28;20531;-88
2022/10/27 05:28:49;;;;;;;14.63;1.63;;;7.70;99.90;;;8.65;100.00;98909.69;4984246;28;20989;-87
2022/10/27 05:31:19;;;;;;;6.80;1.80;;;7.60;99.90;;;8.66;100.00;98897.47;4990789;28;20448;-88
2022/10/27 05:33:48;;;;;;;6.17;1.87;;;7.60;99.90;;;8.66;100.00;98907.91;4989160;28;20444;-88
2022/10/27 05:36:17;;;;;;;3.70;1.67;;;7.70;99.90;;;8.62;100.00;98901.34;4987778;28;20447;-87
2022/10/27 05:38:48;;;;;;;5.57;1.77;;;7.60;99.90;;;8.54;100.00;98894.28;4987856;28;20962;-86
2022/10/27 05:41:22;;;;;;;3.93;1.50;;;7.60;99.90;;;8.49;100.00;98901.75;4986140;28;20601;-87
2022/10/27 05:43:51;;;;;;;2.27;1.57;;;7.50;99.90;;;8.47;100.00;98909.72;4985598;28;20468;-88
2022/10/27 05:46:21;;;;;;;16.17;2.33;;;7.40;99.90;;;8.51;100.00;98913.66;4986436;28;20464;-88
2022/10/27 05:48:50;;;;;;;18.03;1.70;;;7.50;99.90;;;8.54;100.00;98907.31;4989420;28;20930;-87
2022/10/27 05:51:19;;;;;;;4.13;1.43;;;7.60;99.90;;;8.55;100.00;98912.41;4987299;28;20448;-87
2022/10/27 05:53:51;;;;;;;11.43;1.67;;;7.60;99.90;;;8.56;100.00;98914.03;4985860;28;20942;-87
2022/10/27 05:56:20;;;;;;;3.30;1.93;;;7.60;99.90;;;8.50;100.00;98909.41;4985663;28;20452;-87
2022/10/27 05:58:50;;;;;;;2.60;1.73;;;7.60;99.90;;;8.53;100.00;98906.53;4984813;28;20494;-87
2022/10/27 06:01:20;;;;;;;3.90;2.13;;;7.60;99.90;;;8.57;100.00;98909.66;4985378;28;20496;-88
2022/10/27 06:03:52;;;;;;;5.60;1.90;;;7.60;99.90;;;8.62;100.00;98911.78;4983418;28;20444;-87
2022/10/27 06:06:24;;;;;;;2.40;2.07;;;7.70;99.90;;;8.56;100.00;98908.81;4983057;28;20453;-87
2022/10/27 06:08:55;;;;;;;6.00;1.97;;;7.60;99.90;;;8.57;100.00;98915.66;4983966;28;20518;-87
2022/10/27 06:11:24;;;;;;;5.07;2.40;;;7.60;99.90;;;8.61;100.00;98917.97;4985071;28;20449;-88
2022/10/27 06:13:54;;;;;;;6.17;1.83;;;7.70;99.90;;;8.62;100.00;98917.00;4984736;28;20476;-88
2022/10/27 06:16:25;;;;;;;3.40;2.10;;;7.60;99.90;;;8.62;100.00;98920.41;4986851;28;20474;-88
2022/10/27 06:18:57;;;;;;;7.20;1.80;;;7.80;99.90;;;8.64;100.00;98925.50;4986550;28;20673;-87
2022/10/27 06:21:27;;;;;;;3.87;1.77;;;7.70;99.90;;;8.69;100.00;98923.22;4985121;28;20491;-87
2022/10/27 06:23:56;;;;;;;12.83;1.60;;;7.80;99.90;;;8.71;100.00;98927.31;4988438;28;20460;-87
2022/10/27 06:26:25;;;;;;;18.03;2.03;;;7.80;99.90;;;8.74;100.00;98932.25;4987106;28;20528;-87
2022/10/27 06:28:55;;;;;;;7.20;1.80;;;7.80;99.90;;;8.79;100.00;98929.97;4985795;28;20998;-87
2022/10/27 06:31:25;;;;;;;6.23;1.80;;;7.90;99.90;;;8.75;100.00;98935.66;4982991;28;20522;-86
2022/10/27 06:33:54;;;;;;;16.53;2.87;;;7.90;99.90;;;8.78;100.00;98932.75;4983384;28;20791;-86
2022/10/27 06:36:24;;;;;;;4.43;2.00;;;8.00;99.90;;;8.75;100.00;98933.03;4983875;28;20799;-87
2022/10/27 06:38:53;;;;;;;4.37;1.90;;;8.00;99.90;;;8.75;100.00;98933.03;4983423;28;20448;-87
2022/10/27 06:41:25;;;;;;;5.23;2.27;;;7.90;99.90;;;8.77;100.00;98941.53;4981268;28;20496;-87
2022/10/27 06:43:54;;;;;;;4.90;2.30;;;7.90;99.90;;;8.78;100.00;98933.53;4983920;28;20447;-87
2022/10/27 06:46:23;;;;;;;2.57;1.60;;;7.90;99.90;;;8.80;100.00;98939.44;4982011;28;20484;-87
2022/10/27 06:48:55;;;;;;;11.37;2.30;;;7.90;99.90;;;8.84;100.00;98939.97;4984602;28;20546;-87
2022/10/27 06:51:24;;;;;;;6.20;2.10;;;8.00;99.90;;;8.87;100.00;98943.06;4982590;28;20486;-88
2022/10/27 06:53:54;;;;;;;4.17;2.17;;;8.00;99.90;;;8.92;100.00;98940.03;4986557;28;20463;-88
2022/10/27 06:56:23;;;;;;;6.03;1.67;;;8.00;99.90;;;8.93;100.00;98941.63;4988520;28;20495;-87
2022/10/27 06:58:52;;;;;;;9.57;2.03;;;8.10;99.90;;;8.93;100.00;98939.84;4985015;28;20476;-86
2022/10/27 07:01:22;;;;;;;7.00;1.97;;;8.10;99.90;;;8.97;100.00;98935.13;4984013;28;20488;-87
2022/10/27 07:03:51;;;;;;;15.80;2.63;;;8.20;99.90;;;8.97;100.00;98951.63;4984599;28;20463;-88
2022/10/27 07:06:25;;;;;;;2.57;2.10;;;8.20;99.90;;;9.02;100.00;98941.50;4983204;28;20558;-88
2022/10/27 07:08:54;;;;;;;12.13;2.40;;;8.40;99.90;;;9.04;100.00;98941.38;4983659;28;20472;-87
2022/10/27 07:11:25;;;;;;;11.00;2.40;;;8.30;99.90;;;9.04;100.00;98943.97;4982916;28;20493;-88
2022/10/27 07:13:56;;;;;;;8.00;2.77;;;8.30;99.90;;;9.07;100.00;98938.44;4983518;28;20958;-87
2022/10/27 07:16:25;;;;;;;7.10;2.30;;;8.30;99.90;;;9.04;100.00;98943.97;4983795;28;20451;-87
2022/10/27 07:18:58;;;;;;;7.93;1.63;;;8.20;99.90;;;9.03;100.00;98952.78;4987415;28;20978;-88
2022/10/27 07:21:29;;;;;;;2.40;1.83;;;8.20;99.90;;;9.05;100.00;98961.28;4984876;28;20500;-88
2022/10/27 07:23:59;;;;;;;4.60;2.03;;;8.20;99.90;;;9.09;100.00;98955.56;4984569;28;20463;-87
2022/10/27 07:26:27;;;;;;;2.73;2.33;;;8.30;99.90;;;9.09;100.00;98949.56;4985603;28;20463;-87
2022/10/27 07:28:56;;;;;;;4.43;2.53;;;8.30;99.90;;;9.14;100.00;98955.13;4986920;28;21016;-88
2022/10/27 07:31:26;;;;;;;7.50;2.37;;;8.40;99.90;;;9.17;100.00;98960.03;4988611;28;20499;-88
2022/10/27 07:33:57;;;;;;;5.17;2.57;;;8.40;99.90;;;9.20;100.00;98959.72;4987190;28;20448;-87
2022/10/27 07:36:29;;;;;;;8.10;3.60;;;8.40;99.90;;;9.26;100.00;98964.31;4984951;28;20518;-87
2022/10/27 07:38:58;;;;;;;5.10;3.07;;;8.40;99.90;;;9.29;100.00;98965.81;4985779;28;20522;-87
2022/10/27 07:41:27;;;;;;;6.83;3.23;;;8.40;99.90;;;9.34;100.00;98966.13;4983871;28;20586;-88
2022/10/27 07:43:56;;;;;;;14.83;3.10;;;8.50;99.90;;;9.36;100.00;98959.81;4985312;28;20535;-88
2022/10/27 07:46:25;;;;;;;19.67;3.30;;;8.60;99.90;;;9.41;100.00;98965.34;4985452;28;20454;-87
2022/10/27 07:48:54;;;;;;;9.73;2.70;;;8.60;99.90;;;9.40;100.00;98957.69;4987143;28;20456;-88
2022/10/27 07:51:23;;;;;;;11.13;2.53;;;8.60;99.90;;;9.44;100.00;98956.41;4986770;28;20464;-86
2022/10/27 07:53:53;;;;;;;7.73;2.10;;;8.60;99.90;;;9.44;100.00;98965.03;4984451;28;20458;-87
2022/10/27 07:56:26;;;;;;;8.70;2.73;;;8.60;99.90;;;9.49;100.00;98965.41;4984071;28;20507;-87
2022/10/27 07:58:55;;;;;;;6.33;3.03;;;8.70;99.90;;;9.48;100.00;98966.38;4984059;28;20488;-88
2022/10/27 08:01:24;;;;;;;6.83;2.90;;;8.70;99.90;;;9.51;100.00;98965.25;4984458;28;20496;-88
2022/10/27 08:03:53;;;;;;;7.90;3.00;;;8.90;99.90;;;9.53;100.00;98971.94;4986486;28;20458;-87
2022/10/27 08:06:23;;;;;;;5.20;2.50;;;8.80;99.90;;;9.58;100.00;98966.22;4986574;28;20472;-87
2022/10/27 08:08:53;;;;;;;6.07;2.03;;;8.80;99.90;;;9.63;100.00;98971.00;4986135;28;20551;-88
2022/10/27 08:11:22;;;;;;;7.47;2.47;;;8.90;99.90;;;9.67;100.00;98972.31;4987196;28;20496;-87
2022/10/27 08:13:52;;;;;;;3.27;2.30;;;8.90;99.90;;;9.70;100.00;98970.22;4985485;28;21024;-87
2022/10/27 08:16:21;;;;;;;2.83;1.90;;;9.00;99.90;;;9.75;100.00;98965.34;4982790;28;20831;-87
2022/10/27 08:18:50;;;;;;;6.97;2.67;;;9.00;99.90;;;9.81;100.00;98959.47;4983921;28;20504;-88
2022/10/27 08:21:19;;;;;;;9.13;3.07;;;9.10;99.90;;;9.89;100.00;98963.91;4982313;28;21049;-88
2022/10/27 08:23:47;;;;;;;10.87;3.03;;;9.10;99.90;;;9.95;100.00;98971.91;4986020;28;20500;-87
2022/10/27 08:26:18;;;;;;;4.20;2.57;;;9.20;99.90;;;10.00;100.00;98971.41;4985190;28;20460;-87
2022/10/27 08:28:48;;;;;;;5.70;3.30;;;9.30;99.90;;;10.07;100.00;98969.78;4986594;28;20495;-86
2022/10/27 08:31:17;;;;;;;6.07;3.20;;;9.30;99.90;;;10.12;100.00;98972.75;4987436;28;20468;-87
2022/10/27 08:33:46;;;;;;;5.27;3.13;;;9.40;99.90;;;10.17;100.00;98970.50;4988945;28;21020;-87
2022/10/27 08:36:15;;;;;;;9.70;2.90;;;9.40;99.90;;;10.22;100.00;98976.06;4990279;28;20559;-87
2022/10/27 08:38:44;;;;;;;12.10;3.70;;;9.50;99.90;;;10.29;100.00;98974.44;4988179;28;20827;-88
2022/10/27 08:41:39;;;;;;;10.50;3.93;;;9.50;99.90;;;10.37;100.00;98974.47;4985609;28;20462;-88
2022/10/27 08:44:23;;;;;;;8.80;3.53;;;9.70;99.90;;;10.43;100.00;98976.41;4990530;28;20473;-89
2022/10/27 08:46:55;;;;;;;11.57;4.60;;;9.80;99.90;;;10.49;100.00;98973.13;4989169;28;20449;-89
2022/10/27 08:49:38;;;;;;;8.40;4.47;;;9.90;99.90;;;10.56;100.00;98975.91;4988573;28;20534;-88
2022/10/27 08:52:22;;;;;;;10.60;4.10;;;9.90;99.90;;;10.62;100.00;98972.63;4988435;28;20464;-88
2022/10/27 08:54:59;;;;;;;10.20;3.40;;;10.00;99.90;;;10.68;100.00;98972.00;4987783;28;20551;-87
2022/10/27 08:57:33;;;;;;;11.30;3.60;;;10.10;99.90;;;10.74;100.00;98962.66;4988626;28;20545;-88
2022/10/27 09:00:02;;;;;;;9.20;3.53;;;10.20;99.90;;;10.80;100.00;98965.44;4989656;28;20464;-89
2022/10/27 09:02:57;;;;;;;8.07;3.50;;;10.30;99.90;;;10.88;100.00;98970.66;4989219;28;20502;-88
2022/10/27 09:05:57;;;;;;;14.83;5.30;;;10.40;99.90;;;10.94;100.00;98963.94;4990778;28;20488;-86
2022/10/27 09:08:37;;;;;;;11.30;5.50;;;10.50;99.90;;;10.98;100.00;98973.09;4987996;28;20460;-89
2022/10/27 09:11:19;;;;;;;18.70;7.27;;;10.50;99.90;;;11.04;100.00;98969.81;4990040;28;20551;-88
2022/10/27 09:14:11;;;;;;;12.30;4.67;;;10.60;99.90;;;11.10;100.00;98974.41;4988280;28;20498;-86
2022/10/27 09:16:46;;;;;;;8.57;5.00;;;10.60;99.90;;;11.14;100.00;98974.88;4986389;28;20512;-88
2022/10/27 09:19:24;;;;;;;18.00;5.10;;;10.50;99.90;;;11.20;100.00;98974.19;4987080;28;20463;-88
2022/10/27 09:21:54;;;;;;;15.10;5.70;;;10.60;99.90;;;11.24;100.00;98978.94;4986498;28;20579;-88
2022/10/27 09:24:30;;;;;;;14.27;5.80;;;10.60;99.90;;;11.30;100.00;98974.81;4988236;28;20483;-87
2022/10/27 09:26:59;;;;;;;16.37;6.50;;;10.70;99.90;;;11.34;100.00;98974.31;4970558;28;20539;-87
2022/10/27 09:29:35;;;;;;;15.87;6.23;;;10.80;99.90;;;11.39;100.00;98979.84;4984898;28;20557;-86
2022/10/27 09:32:17;;;;;;;14.07;5.60;;;10.80;99.90;;;11.45;100.00;98968.69;4986344;28;20457;-88
2022/10/27 09:34:54;;;;;;;12.50;5.37;;;10.90;99.90;;;11.50;100.00;98970.81;4982169;28;20531;-88
2022/10/27 09:37:24;;;;;;;16.73;5.50;;;11.00;99.90;;;11.54;100.00;98966.88;4983876;28;20491;-88
2022/10/27 09:39:53;;;;;;;9.23;4.50;;;11.10;99.90;;;11.57;100.00;98961.28;4985727;28;20547;-88
2022/10/27 09:42:22;;;;;;;13.50;5.10;;;11.10;99.90;;;11.61;100.00;98958.16;4987478;28;20587;-88
2022/10/27 09:44:58;;;;;;;14.47;4.70;;;11.10;99.90;;;11.65;100.00;98958.66;4987803;28;20944;-87
2022/10/27 09:47:30;;;;;;;11.97;4.67;;;11.10;99.90;;;11.68;100.00;98963.53;4989488;28;20443;-89
2022/10/27 09:50:01;;;;;;;11.87;4.50;;;11.10;99.90;;;11.73;100.00;98960.44;4989048;28;20461;-86
2022/10/27 09:52:37;;;;;;;8.73;4.30;;;11.20;99.90;;;11.76;100.00;98966.16;4986581;28;21005;-88
2022/10/27 09:55:07;;;;;;;9.70;4.60;;;11.20;99.90;;;11.79;100.00;98960.56;4987255;28;20534;-87
2022/10/27 09:57:40;;;;;;;8.27;4.20;;;11.30;99.90;;;11.82;100.00;98959.41;4986427;28;20521;-88
2022/10/27 10:00:27;;;;;;;7.00;4.10;;;11.30;99.90;;;11.86;100.00;98955.47;4986262;28;20480;-88
2022/10/27 10:03:03;;;;;;;9.33;3.87;;;11.30;99.90;;;11.91;100.00;98955.75;4987088;28;20495;-87
2022/10/27 10:05:36;;;;;;;8.57;4.47;;;11.40;99.90;;;11.95;100.00;98960.47;4985191;28;20451;-87
2022/10/27 10:08:24;;;;;;;14.17;3.80;;;11.40;99.90;;;11.98;100.00;98954.88;4988506;28;20464;-88
2022/10/27 10:10:58;;;;;;;6.63;3.30;;;11.40;99.90;;;12.04;100.00;98963.88;4988001;28;20456;-89
2022/10/27 10:13:28;;;;;;;6.87;3.53;;;11.50;99.90;;;12.08;100.00;98970.38;4988394;28;20467;-88
2022/10/27 10:16:12;;;;;;;9.53;3.90;;;11.50;99.90;;;12.11;100.00;98956.94;4989254;28;20475;-88
2022/10/27 10:18:45;;;;;;;7.50;4.27;;;11.50;99.90;;;12.15;100.00;98950.34;4983685;28;20447;-89
2022/10/27 10:21:15;;;;;;;7.27;3.80;;;11.60;99.90;;;12.20;100.00;98953.25;4986047;28;20464;-88
2022/10/27 10:23:53;;;;;;;5.40;3.30;;;11.60;99.90;;;12.24;100.00;98949.31;4986114;28;20491;-88
2022/10/27 10:26:26;;;;;;;5.83;3.60;;;11.70;99.90;;;12.29;100.00;98940.91;4985802;28;20482;-88
2022/10/27 10:29:07;;;;;;;6.57;3.63;;;11.80;99.90;;;12.34;100.00;98933.31;4986419;28;20939;-88
2022/10/27 10:31:42;;;;;;;5.57;3.70;;;11.80;99.90;;;12.39;100.00;98931.78;4985487;28;20479;-88
2022/10/27 10:34:31;;;;;;;5.00;3.40;;;11.90;99.90;;;12.44;100.00;98924.22;4989045;28;20480;-88
2022/10/27 10:37:00;;;;;;;6.93;4.00;;;12.00;99.90;;;12.50;100.00;98930.56;4987965;28;20562;-88
2022/10/27 10:39:34;;;;;;;6.30;4.07;;;12.00;99.90;;;12.55;100.00;98931.69;4985357;28;21016;-87
2022/10/27 10:42:17;;;;;;;4.40;4.00;;;12.10;99.90;;;12.59;100.00;98919.84;4983371;28;20767;-88